Aviation Digital Data Service (ADDS)

Output produced by METARs form (1511 UTC 24 May 2015)
found at http://aviationweather.gov/adds/metars/
 
KBWI 241430Z 2415/2518 19005KT P6SM SCT200 
     FM251400 21009KT P6SM SCT200